createdAt,value
2022-08-17T04:03:21.204Z,72.80
2022-08-17T04:05:48.272Z,73.00
2022-08-17T04:08:15.142Z,73.10
2022-08-17T04:10:45.192Z,73.10
2022-08-17T04:13:12.937Z,73.30
2022-08-17T04:15:40.222Z,73.30
2022-08-17T04:18:07.727Z,73.20
2022-08-17T04:20:38.086Z,73.10
2022-08-17T04:23:15.155Z,73.10
2022-08-17T04:25:49.074Z,73.20
2022-08-17T04:28:19.698Z,73.30
2022-08-17T04:30:48.000Z,73.20
2022-08-17T04:33:21.630Z,73.10
2022-08-17T04:35:51.633Z,73.00
2022-08-17T04:38:24.582Z,73.10
2022-08-17T04:41:11.040Z,73.30
2022-08-17T04:43:39.936Z,73.30
2022-08-17T04:46:19.048Z,73.40
2022-08-17T04:48:49.321Z,73.40
2022-08-17T04:51:30.807Z,73.20
2022-08-17T04:54:10.470Z,73.10
2022-08-17T04:56:38.438Z,72.90
2022-08-17T04:59:09.385Z,72.80
2022-08-17T05:01:39.801Z,72.60
2022-08-17T05:04:21.457Z,72.50
2022-08-17T05:06:57.369Z,72.50
2022-08-17T05:09:24.467Z,72.60
2022-08-17T05:11:51.289Z,72.80
2022-08-17T05:14:18.271Z,72.80
2022-08-17T05:16:45.830Z,72.90
2022-08-17T05:19:12.654Z,72.90
2022-08-17T05:21:39.549Z,72.90
2022-08-17T05:24:35.391Z,73.00
2022-08-17T05:26:53.509Z,73.10
2022-08-17T05:29:35.186Z,73.00
2022-08-17T05:32:38.952Z,73.10
2022-08-17T05:35:00.777Z,73.10
2022-08-17T05:37:27.970Z,73.00
2022-08-17T05:39:55.009Z,73.00
2022-08-17T05:42:22.552Z,72.90
2022-08-17T05:44:49.465Z,73.00
2022-08-17T05:47:17.376Z,72.80
2022-08-17T05:49:44.196Z,72.90
2022-08-17T05:52:29.829Z,72.60
2022-08-17T05:55:03.924Z,72.60
2022-08-17T05:57:49.696Z,72.40
2022-08-17T06:00:30.026Z,72.30
2022-08-17T06:03:06.712Z,72.00
2022-08-17T06:06:07.438Z,72.00
2022-08-17T06:08:34.278Z,71.90
2022-08-17T06:11:22.755Z,72.10
2022-08-17T06:14:18.761Z,71.70
2022-08-17T06:16:53.475Z,71.60
2022-08-17T06:19:48.855Z,72.00
2022-08-17T06:22:20.319Z,71.60
2022-08-17T06:25:14.012Z,71.10
2022-08-17T06:27:53.904Z,70.40
2022-08-17T06:30:22.364Z,70.30
2022-08-17T06:32:52.054Z,70.10
2022-08-17T06:35:33.510Z,69.70
2022-08-17T06:38:37.246Z,69.20
2022-08-17T06:41:31.466Z,68.40
2022-08-17T06:44:43.563Z,68.40
2022-08-17T06:47:12.408Z,67.90
2022-08-17T06:49:55.182Z,67.70
2022-08-17T06:52:46.690Z,67.40
2022-08-17T06:55:33.200Z,67.00
2022-08-17T06:58:16.482Z,66.50
2022-08-17T07:00:47.336Z,66.60
2022-08-17T07:03:38.898Z,66.40
2022-08-17T07:06:15.264Z,66.00
2022-08-17T07:09:05.519Z,66.10
2022-08-17T07:11:51.771Z,66.00
2022-08-17T07:14:37.701Z,65.80
2022-08-17T07:17:10.639Z,65.90
2022-08-17T07:19:44.392Z,65.80
2022-08-17T07:22:17.136Z,65.90
2022-08-17T07:24:59.670Z,65.70
2022-08-17T07:27:31.120Z,65.70
2022-08-17T07:30:06.775Z,65.70
2022-08-17T07:32:42.409Z,65.60
2022-08-17T07:35:15.460Z,65.60
2022-08-17T07:37:55.700Z,65.70
2022-08-17T07:40:35.312Z,65.80
2022-08-17T07:43:04.919Z,65.40
2022-08-17T07:45:51.847Z,65.50
2022-08-17T07:48:26.061Z,65.20
2022-08-17T07:50:53.299Z,65.00
2022-08-17T07:53:24.149Z,65.00
2022-08-17T07:55:53.521Z,65.10
2022-08-17T07:58:23.671Z,64.90
2022-08-17T08:01:23.308Z,65.00
2022-08-17T08:03:51.827Z,65.20
2022-08-17T08:06:24.927Z,65.20
2022-08-17T08:08:54.887Z,65.30
2022-08-17T08:11:38.373Z,65.20
2022-08-17T08:14:39.699Z,65.10
2022-08-17T08:17:09.489Z,65.00
2022-08-17T08:19:37.113Z,65.00
2022-08-17T08:22:21.097Z,64.50
2022-08-17T08:25:20.071Z,64.60
2022-08-17T08:28:10.556Z,64.70
2022-08-17T08:30:46.997Z,64.60
2022-08-17T08:33:39.459Z,64.20
2022-08-17T08:37:12.793Z,64.10
2022-08-17T08:39:12.977Z,64.00
2022-08-17T08:42:11.640Z,64.00
2022-08-17T08:45:01.258Z,64.00
2022-08-17T08:47:49.858Z,63.90
2022-08-17T08:50:59.980Z,63.80
2022-08-17T08:53:42.670Z,63.70
2022-08-17T08:56:20.335Z,63.40
2022-08-17T08:59:02.294Z,63.50
2022-08-17T09:01:49.692Z,63.40
2022-08-17T09:05:13.386Z,63.30
2022-08-17T09:08:17.487Z,63.40
2022-08-17T09:11:31.982Z,63.30
2022-08-17T09:14:21.840Z,62.90
2022-08-17T09:17:14.280Z,63.00
2022-08-17T09:19:57.124Z,62.90
2022-08-17T09:22:36.462Z,62.20
2022-08-17T09:25:09.249Z,62.20
2022-08-17T09:28:06.939Z,61.60
2022-08-17T09:30:51.775Z,60.30
2022-08-17T09:33:27.132Z,59.60
2022-08-17T09:36:05.491Z,59.20
2022-08-17T09:38:41.797Z,58.60
2022-08-17T09:41:15.787Z,57.90
2022-08-17T09:44:23.090Z,57.50
2022-08-17T09:46:55.841Z,56.40
2022-08-17T09:49:35.143Z,56.20
2022-08-17T09:52:18.582Z,55.80
2022-08-17T09:54:46.405Z,55.50
2022-08-17T09:57:43.807Z,55.90
2022-08-17T10:00:16.586Z,55.90
2022-08-17T10:03:03.069Z,55.70
2022-08-17T10:05:32.928Z,55.40
2022-08-17T10:08:09.313Z,55.20
2022-08-17T10:10:56.583Z,55.00
2022-08-17T10:13:46.021Z,55.10
2022-08-17T10:16:37.284Z,55.00
2022-08-17T10:19:06.856Z,55.10
2022-08-17T10:22:14.559Z,55.30
2022-08-17T10:25:23.850Z,55.00
2022-08-17T10:27:58.637Z,54.80
2022-08-17T10:30:30.509Z,54.50
2022-08-17T10:33:01.144Z,54.40
2022-08-17T10:35:46.565Z,54.00
2022-08-17T10:38:46.148Z,53.80
2022-08-17T10:41:31.525Z,53.80
2022-08-17T10:44:38.331Z,54.20
2022-08-17T10:47:11.907Z,53.20
2022-08-17T10:49:47.819Z,53.20
2022-08-17T10:52:20.842Z,52.80
2022-08-17T10:54:58.433Z,52.30
2022-08-17T10:57:31.921Z,52.30
2022-08-17T11:00:10.361Z,52.30
2022-08-17T11:02:49.466Z,52.50
2022-08-17T11:05:43.508Z,52.20
2022-08-17T11:08:29.329Z,51.70
2022-08-17T11:10:56.144Z,51.60
2022-08-17T11:14:06.754Z,51.70
2022-08-17T11:16:39.434Z,51.50
2022-08-17T11:19:35.715Z,51.60
2022-08-17T11:22:39.719Z,51.50
2022-08-17T11:25:18.295Z,51.60
2022-08-17T11:27:53.749Z,51.90
2022-08-17T11:30:49.319Z,52.10
2022-08-17T11:33:36.589Z,52.60
2022-08-17T11:36:45.616Z,53.00
2022-08-17T11:39:37.012Z,53.40
2022-08-17T11:42:25.566Z,55.00
2022-08-17T11:45:07.811Z,56.10
2022-08-17T11:48:26.591Z,57.30
2022-08-17T11:51:17.198Z,58.50
2022-08-17T11:54:21.614Z,59.70
2022-08-17T11:56:48.708Z,61.20
2022-08-17T11:59:33.906Z,62.20
2022-08-17T12:02:04.145Z,63.10
2022-08-17T12:04:34.089Z,63.90
2022-08-17T12:07:14.805Z,64.60
2022-08-17T12:09:45.380Z,66.00
2022-08-17T12:12:22.619Z,67.00
2022-08-17T12:15:10.983Z,67.90
2022-08-17T12:17:40.118Z,68.00
2022-08-17T12:20:21.431Z,68.00
2022-08-17T12:23:01.388Z,68.50
2022-08-17T12:25:41.186Z,69.00
2022-08-17T12:28:30.961Z,69.90
2022-08-17T12:31:02.793Z,70.10
2022-08-17T12:33:30.326Z,70.10
2022-08-17T12:36:18.738Z,70.20
2022-08-17T12:39:13.660Z,69.90
2022-08-17T12:41:50.318Z,70.00
2022-08-17T12:44:22.210Z,70.00
2022-08-17T12:47:04.903Z,69.80
2022-08-17T12:49:35.700Z,70.00
2022-08-17T12:52:26.699Z,70.10
2022-08-17T12:55:27.770Z,70.30
2022-08-17T12:58:02.290Z,70.20
2022-08-17T13:00:47.627Z,70.30
2022-08-17T13:03:24.261Z,70.00
2022-08-17T13:06:06.570Z,69.90
2022-08-17T13:08:41.611Z,69.90
2022-08-17T13:11:14.634Z,69.40
2022-08-17T13:13:44.620Z,68.80
2022-08-17T13:16:14.424Z,68.20
2022-08-17T13:18:50.688Z,68.00
2022-08-17T13:21:23.761Z,67.50
2022-08-17T13:24:03.659Z,67.30
2022-08-17T13:26:54.711Z,67.40
2022-08-17T13:29:33.269Z,67.70
2022-08-17T13:32:13.527Z,67.70
2022-08-17T13:35:13.082Z,67.60
2022-08-17T13:38:01.298Z,67.70
2022-08-17T13:40:53.082Z,67.80
2022-08-17T13:43:49.600Z,67.40
2022-08-17T13:46:22.651Z,67.00
2022-08-17T13:49:05.861Z,67.10
2022-08-17T13:51:36.465Z,67.00
2022-08-17T13:54:08.382Z,67.00
2022-08-17T13:57:21.918Z,66.80
2022-08-17T13:59:55.053Z,66.90
2022-08-17T14:02:26.085Z,67.00
2022-08-17T14:04:55.723Z,67.10
2022-08-17T14:07:29.795Z,67.10
2022-08-17T14:10:17.440Z,66.90
2022-08-17T14:12:45.439Z,66.70
2022-08-17T14:15:15.085Z,66.90
2022-08-17T14:17:42.018Z,67.00
2022-08-17T14:20:11.750Z,67.20
2022-08-17T14:22:43.221Z,67.20
2022-08-17T14:25:12.472Z,67.30
2022-08-17T14:27:47.117Z,67.60
2022-08-17T14:30:23.760Z,67.50
2022-08-17T14:32:52.096Z,67.60
2022-08-17T14:35:22.822Z,67.60
2022-08-17T14:37:50.670Z,67.40
2022-08-17T14:40:20.906Z,67.60
2022-08-17T14:42:48.416Z,67.30
2022-08-17T14:45:29.628Z,67.00
2022-08-17T14:47:59.472Z,67.00
2022-08-17T14:50:27.183Z,66.90
2022-08-17T14:52:58.185Z,66.70
2022-08-17T14:55:28.355Z,66.60
2022-08-17T14:57:55.168Z,66.20
2022-08-17T15:00:22.103Z,66.40
2022-08-17T15:02:55.156Z,66.50
2022-08-17T15:05:24.956Z,66.70
2022-08-17T15:07:53.440Z,66.80
2022-08-17T15:10:20.872Z,66.90
2022-08-17T15:12:48.324Z,66.90
2022-08-17T15:15:17.849Z,67.10
2022-08-17T15:17:46.017Z,67.30
2022-08-17T15:20:16.876Z,67.30
2022-08-17T15:22:46.188Z,67.40
2022-08-17T15:25:14.054Z,67.20
2022-08-17T15:27:41.597Z,67.10
2022-08-17T15:30:10.019Z,67.00
2022-08-17T15:32:39.429Z,66.70
2022-08-17T15:35:11.772Z,66.30
2022-08-17T15:37:40.353Z,65.90
2022-08-17T15:40:10.027Z,65.80
2022-08-17T15:42:37.919Z,65.30
2022-08-17T15:45:11.402Z,65.40
2022-08-17T15:47:39.234Z,64.90
2022-08-17T15:50:07.753Z,64.90
2022-08-17T15:52:40.084Z,64.50
2022-08-17T15:55:11.047Z,64.60
2022-08-17T15:57:38.176Z,64.80
2022-08-17T16:00:07.651Z,64.70
2022-08-17T16:03:44.795Z,64.60
2022-08-17T16:05:28.509Z,64.90
2022-08-17T16:07:59.718Z,65.20
2022-08-17T16:10:34.994Z,65.20
2022-08-17T16:13:04.154Z,65.70
2022-08-17T16:15:31.729Z,65.90
2022-08-17T16:17:59.142Z,66.30
2022-08-17T16:20:28.369Z,66.50
2022-08-17T16:22:55.536Z,66.40
2022-08-17T16:25:52.015Z,66.30
2022-08-17T16:28:17.399Z,66.10
2022-08-17T16:30:44.388Z,66.00
2022-08-17T16:33:11.920Z,66.30
2022-08-17T16:35:39.113Z,66.30
2022-08-17T16:38:07.243Z,66.00
2022-08-17T16:40:36.082Z,66.20
2022-08-17T16:43:09.194Z,66.30
2022-08-17T16:45:40.342Z,66.50
2022-08-17T16:48:10.381Z,66.80
2022-08-17T16:50:40.098Z,67.10
2022-08-17T16:53:18.050Z,67.10
2022-08-17T16:55:46.578Z,67.00
2022-08-17T16:58:13.522Z,67.30
2022-08-17T17:00:42.327Z,67.20
2022-08-17T17:03:20.527Z,67.30
2022-08-17T17:06:13.742Z,67.10
2022-08-17T17:08:48.476Z,67.20
2022-08-17T17:11:23.140Z,67.70
2022-08-17T17:13:58.467Z,68.00
2022-08-17T17:16:41.658Z,68.00
2022-08-17T17:19:18.106Z,67.90
2022-08-17T17:22:30.849Z,67.90
2022-08-17T17:25:13.061Z,68.00
2022-08-17T17:40:42.727Z,67.90
2022-08-17T17:47:20.335Z,68.00
2022-08-17T17:50:33.716Z,67.70
2022-08-17T18:05:24.143Z,66.80
2022-08-17T18:08:46.158Z,66.70
2022-08-17T18:12:07.782Z,67.00
2022-08-17T18:15:05.571Z,66.90
2022-08-17T18:17:36.317Z,66.90
2022-08-17T18:20:06.942Z,67.10
2022-08-17T18:22:34.221Z,67.20
2022-08-17T18:25:01.261Z,67.30
2022-08-17T18:27:38.557Z,67.40
2022-08-17T18:30:14.553Z,67.50
2022-08-17T18:32:44.044Z,67.80
2022-08-17T18:35:19.135Z,68.00
2022-08-17T18:37:53.002Z,68.10
2022-08-17T18:40:20.088Z,68.20
2022-08-17T18:42:57.498Z,68.20
2022-08-17T18:45:35.352Z,68.50
2022-08-17T18:48:03.010Z,68.70
2022-08-17T18:50:41.457Z,68.70
2022-08-17T18:53:33.214Z,68.70
2022-08-17T18:56:26.448Z,68.80
2022-08-17T18:58:59.950Z,68.80
2022-08-17T19:01:59.948Z,68.90
2022-08-17T19:04:39.442Z,69.20
2022-08-17T19:07:24.254Z,69.50
2022-08-17T19:09:59.282Z,69.80
2022-08-17T19:12:42.166Z,69.90
2022-08-17T19:15:13.019Z,70.20
2022-08-17T19:17:46.955Z,70.30
2022-08-17T19:20:35.509Z,70.50
2022-08-17T19:23:18.379Z,70.70
2022-08-17T19:25:49.888Z,70.90
2022-08-17T19:28:29.996Z,70.90
2022-08-17T19:31:04.720Z,71.00
2022-08-17T19:33:34.907Z,71.20
2022-08-17T19:36:19.081Z,71.10
2022-08-17T19:38:46.561Z,71.10
2022-08-17T19:41:43.021Z,71.00
2022-08-17T19:44:41.350Z,70.90
2022-08-17T19:47:53.151Z,70.70
2022-08-17T19:50:45.031Z,70.40
2022-08-17T19:53:47.517Z,70.20
2022-08-17T19:56:37.385Z,70.10
2022-08-17T19:59:40.651Z,70.00
2022-08-17T20:02:41.311Z,70.00
2022-08-17T20:05:19.936Z,69.90
2022-08-17T20:07:55.234Z,69.90
2022-08-17T20:10:54.378Z,70.00
2022-08-17T20:13:42.316Z,70.00
2022-08-17T20:16:11.926Z,70.10
2022-08-17T20:18:47.723Z,70.10
2022-08-17T20:21:24.065Z,70.20
2022-08-17T20:23:59.655Z,70.10
2022-08-17T20:26:35.721Z,70.00
2022-08-17T20:29:14.652Z,69.90
2022-08-17T20:31:45.582Z,69.90
2022-08-17T20:34:30.992Z,69.60
2022-08-17T20:37:35.089Z,69.50
2022-08-17T20:40:21.635Z,69.60
2022-08-17T20:42:54.584Z,69.70
2022-08-17T20:45:21.666Z,69.80
2022-08-17T20:48:18.532Z,69.80
2022-08-17T20:50:45.432Z,70.00
2022-08-17T20:53:36.780Z,70.20
2022-08-17T20:56:04.176Z,70.50
2022-08-17T20:58:31.400Z,70.70
2022-08-17T21:01:01.624Z,71.00
2022-08-17T21:03:47.959Z,71.10
2022-08-17T21:06:18.231Z,71.20
2022-08-17T21:08:53.914Z,71.30
2022-08-17T21:12:03.187Z,71.40
2022-08-17T21:14:42.743Z,71.60
2022-08-17T21:17:38.603Z,71.80
2022-08-17T21:20:44.344Z,72.00
2022-08-17T21:23:40.557Z,72.30
2022-08-17T21:26:50.718Z,72.40
2022-08-17T21:29:31.967Z,72.50
2022-08-17T21:32:00.684Z,72.50
2022-08-17T21:34:30.430Z,72.50
2022-08-17T21:37:20.074Z,72.80
2022-08-17T21:40:26.938Z,72.90
2022-08-17T21:43:01.858Z,72.90
2022-08-17T21:45:40.899Z,73.00
2022-08-17T21:48:19.656Z,73.00
2022-08-17T21:51:15.448Z,73.00
2022-08-17T21:53:42.260Z,73.00
2022-08-17T21:56:12.201Z,72.90
2022-08-17T21:58:45.438Z,73.00
2022-08-17T22:01:25.150Z,72.90
2022-08-17T22:04:11.278Z,72.90
2022-08-17T22:06:40.517Z,73.00
2022-08-17T22:09:10.293Z,72.90
2022-08-17T22:12:03.410Z,72.90
2022-08-17T22:14:53.043Z,73.00
2022-08-17T22:17:22.956Z,73.00
2022-08-17T22:19:51.398Z,72.80
2022-08-17T22:22:28.215Z,72.80
2022-08-17T22:25:01.406Z,72.80
2022-08-17T22:27:49.516Z,72.90
2022-08-17T22:30:27.701Z,73.10
2022-08-17T22:32:55.580Z,73.20
2022-08-17T22:35:43.063Z,73.30
2022-08-17T22:38:19.024Z,73.50
2022-08-17T22:40:51.662Z,73.60
2022-08-17T22:43:25.919Z,73.50
2022-08-17T22:45:57.431Z,73.60
2022-08-17T22:48:27.978Z,73.60
2022-08-17T22:51:17.397Z,73.60
2022-08-17T22:54:20.634Z,73.60
2022-08-17T22:57:20.306Z,73.70
2022-08-17T22:59:54.155Z,73.70
